sensor_id;sensor_type;location;lat;lon;timestamp;P1;durP1;ratioP1;P2;durP2;ratioP2
1048;SDS011;513;51.444;7.196;2023-05-07T00:02:11;7.40;;;6.13;;
1048;SDS011;513;51.444;7.196;2023-05-07T00:04:38;8.20;;;6.93;;
1048;SDS011;513;51.444;7.196;2023-05-07T00:07:05;7.75;;;6.32;;
1048;SDS011;513;51.444;7.196;2023-05-07T00:09:32;8.38;;;6.60;;
1048;SDS011;513;51.444;7.196;2023-05-07T00:11:59;7.45;;;6.65;;
1048;SDS011;513;51.444;7.196;2023-05-07T00:14:26;8.52;;;6.55;;
1048;SDS011;513;51.444;7.196;2023-05-07T00:16:54;8.07;;;6.32;;
1048;SDS011;513;51.444;7.196;2023-05-07T00:19:21;7.93;;;6.22;;
1048;SDS011;513;51.444;7.196;2023-05-07T00:21:48;9.75;;;7.35;;
1048;SDS011;513;51.444;7.196;2023-05-07T00:24:15;9.27;;;7.60;;
1048;SDS011;513;51.444;7.196;2023-05-07T00:26:42;9.88;;;7.50;;
1048;SDS011;513;51.444;7.196;2023-05-07T00:29:09;9.40;;;7.20;;
1048;SDS011;513;51.444;7.196;2023-05-07T00:31:36;9.27;;;6.85;;
1048;SDS011;513;51.444;7.196;2023-05-07T00:34:05;9.57;;;7.82;;
1048;SDS011;513;51.444;7.196;2023-05-07T00:36:32;8.07;;;7.07;;
1048;SDS011;513;51.444;7.196;2023-05-07T00:38:59;8.93;;;7.50;;
1048;SDS011;513;51.444;7.196;2023-05-07T00:41:28;9.55;;;8.05;;
1048;SDS011;513;51.444;7.196;2023-05-07T00:43:55;11.15;;;7.95;;
1048;SDS011;513;51.444;7.196;2023-05-07T00:46:22;9.80;;;8.57;;
1048;SDS011;513;51.444;7.196;2023-05-07T00:48:50;10.77;;;8.10;;
1048;SDS011;513;51.444;7.196;2023-05-07T00:51:19;9.90;;;8.38;;
1048;SDS011;513;51.444;7.196;2023-05-07T00:53:46;8.25;;;6.82;;
1048;SDS011;513;51.444;7.196;2023-05-07T00:56:13;9.32;;;6.90;;
1048;SDS011;513;51.444;7.196;2023-05-07T00:58:40;7.90;;;6.68;;
1048;SDS011;513;51.444;7.196;2023-05-07T01:01:07;7.43;;;6.50;;
1048;SDS011;513;51.444;7.196;2023-05-07T01:03:34;7.68;;;6.15;;
1048;SDS011;513;51.444;7.196;2023-05-07T01:06:01;7.05;;;6.35;;
1048;SDS011;513;51.444;7.196;2023-05-07T01:08:30;7.93;;;6.82;;
1048;SDS011;513;51.444;7.196;2023-05-07T01:10:57;8.17;;;6.93;;
1048;SDS011;513;51.444;7.196;2023-05-07T01:13:25;7.93;;;6.85;;
1048;SDS011;513;51.444;7.196;2023-05-07T01:15:52;9.13;;;7.15;;
1048;SDS011;513;51.444;7.196;2023-05-07T01:18:19;8.70;;;7.78;;
1048;SDS011;513;51.444;7.196;2023-05-07T01:20:46;9.53;;;8.47;;
1048;SDS011;513;51.444;7.196;2023-05-07T01:23:15;11.00;;;8.93;;
1048;SDS011;513;51.444;7.196;2023-05-07T01:25:42;9.77;;;8.30;;
1048;SDS011;513;51.444;7.196;2023-05-07T01:28:09;9.73;;;7.90;;
1048;SDS011;513;51.444;7.196;2023-05-07T01:30:36;8.63;;;7.20;;
1048;SDS011;513;51.444;7.196;2023-05-07T01:33:04;9.25;;;7.50;;
1048;SDS011;513;51.444;7.196;2023-05-07T01:35:34;10.20;;;9.15;;
1048;SDS011;513;51.444;7.196;2023-05-07T01:38:02;11.80;;;8.90;;
1048;SDS011;513;51.444;7.196;2023-05-07T01:40:32;12.10;;;9.35;;
1048;SDS011;513;51.444;7.196;2023-05-07T01:43:00;10.33;;;9.07;;
1048;SDS011;513;51.444;7.196;2023-05-07T01:45:27;12.30;;;9.60;;
1048;SDS011;513;51.444;7.196;2023-05-07T01:47:54;12.57;;;9.20;;
1048;SDS011;513;51.444;7.196;2023-05-07T01:50:21;12.10;;;10.35;;
1048;SDS011;513;51.444;7.196;2023-05-07T01:52:50;12.32;;;9.80;;
1048;SDS011;513;51.444;7.196;2023-05-07T01:55:17;14.20;;;11.10;;
1048;SDS011;513;51.444;7.196;2023-05-07T01:57:45;13.50;;;11.10;;
1048;SDS011;513;51.444;7.196;2023-05-07T02:00:12;13.73;;;10.77;;
1048;SDS011;513;51.444;7.196;2023-05-07T02:02:39;14.82;;;11.60;;
1048;SDS011;513;51.444;7.196;2023-05-07T02:05:06;16.05;;;12.13;;
1048;SDS011;513;51.444;7.196;2023-05-07T02:07:34;15.90;;;12.68;;
1048;SDS011;513;51.444;7.196;2023-05-07T02:10:00;16.23;;;12.05;;
1048;SDS011;513;51.444;7.196;2023-05-07T02:12:28;14.05;;;11.65;;
1048;SDS011;513;51.444;7.196;2023-05-07T02:14:56;12.23;;;11.00;;
1048;SDS011;513;51.444;7.196;2023-05-07T02:17:23;13.07;;;10.57;;
1048;SDS011;513;51.444;7.196;2023-05-07T02:19:51;11.80;;;10.48;;
1048;SDS011;513;51.444;7.196;2023-05-07T02:22:18;12.98;;;9.20;;
1048;SDS011;513;51.444;7.196;2023-05-07T02:24:45;11.48;;;8.82;;
1048;SDS011;513;51.444;7.196;2023-05-07T02:27:11;11.52;;;9.35;;
1048;SDS011;513;51.444;7.196;2023-05-07T02:29:38;10.55;;;9.40;;
1048;SDS011;513;51.444;7.196;2023-05-07T02:32:07;12.73;;;9.38;;
1048;SDS011;513;51.444;7.196;2023-05-07T02:34:34;11.18;;;9.13;;
1048;SDS011;513;51.444;7.196;2023-05-07T02:37:01;10.77;;;8.73;;
1048;SDS011;513;51.444;7.196;2023-05-07T02:39:28;11.70;;;8.77;;
1048;SDS011;513;51.444;7.196;2023-05-07T02:41:55;14.17;;;9.20;;
1048;SDS011;513;51.444;7.196;2023-05-07T02:44:22;10.80;;;8.82;;
1048;SDS011;513;51.444;7.196;2023-05-07T02:46:49;10.75;;;8.25;;
1048;SDS011;513;51.444;7.196;2023-05-07T02:49:17;10.18;;;8.50;;
1048;SDS011;513;51.444;7.196;2023-05-07T02:51:44;9.90;;;8.38;;
1048;SDS011;513;51.444;7.196;2023-05-07T02:54:11;9.60;;;8.60;;
1048;SDS011;513;51.444;7.196;2023-05-07T02:56:38;9.88;;;7.80;;
1048;SDS011;513;51.444;7.196;2023-05-07T02:59:05;9.10;;;7.67;;
1048;SDS011;513;51.444;7.196;2023-05-07T03:01:32;9.63;;;7.82;;
1048;SDS011;513;51.444;7.196;2023-05-07T03:03:59;9.60;;;7.47;;
1048;SDS011;513;51.444;7.196;2023-05-07T03:06:28;10.68;;;7.93;;
1048;SDS011;513;51.444;7.196;2023-05-07T03:08:56;10.02;;;7.22;;
1048;SDS011;513;51.444;7.196;2023-05-07T03:11:23;8.38;;;7.10;;
1048;SDS011;513;51.444;7.196;2023-05-07T03:13:51;9.10;;;7.65;;
1048;SDS011;513;51.444;7.196;2023-05-07T03:16:18;10.45;;;8.20;;
1048;SDS011;513;51.444;7.196;2023-05-07T03:18:45;8.85;;;7.63;;
1048;SDS011;513;51.444;7.196;2023-05-07T03:21:12;11.45;;;8.10;;
1048;SDS011;513;51.444;7.196;2023-05-07T03:23:40;11.85;;;7.72;;
1048;SDS011;513;51.444;7.196;2023-05-07T03:26:07;8.70;;;7.78;;
1048;SDS011;513;51.444;7.196;2023-05-07T03:28:34;11.57;;;8.32;;
1048;SDS011;513;51.444;7.196;2023-05-07T03:31:01;14.13;;;9.90;;
1048;SDS011;513;51.444;7.196;2023-05-07T03:33:28;13.77;;;9.98;;
1048;SDS011;513;51.444;7.196;2023-05-07T03:35:55;13.02;;;9.80;;
1048;SDS011;513;51.444;7.196;2023-05-07T03:38:22;11.70;;;9.30;;
1048;SDS011;513;51.444;7.196;2023-05-07T03:40:50;13.93;;;11.07;;
1048;SDS011;513;51.444;7.196;2023-05-07T03:43:17;16.20;;;13.13;;
1048;SDS011;513;51.444;7.196;2023-05-07T03:45:44;19.23;;;14.45;;
1048;SDS011;513;51.444;7.196;2023-05-07T03:48:11;18.23;;;15.30;;
1048;SDS011;513;51.444;7.196;2023-05-07T03:50:38;20.55;;;15.73;;
1048;SDS011;513;51.444;7.196;2023-05-07T03:53:05;21.73;;;17.13;;
1048;SDS011;513;51.444;7.196;2023-05-07T03:55:32;21.15;;;17.75;;
1048;SDS011;513;51.444;7.196;2023-05-07T03:58:00;26.08;;;20.02;;
1048;SDS011;513;51.444;7.196;2023-05-07T04:00:27;24.67;;;21.27;;
1048;SDS011;513;51.444;7.196;2023-05-07T04:02:58;25.95;;;21.13;;
1048;SDS011;513;51.444;7.196;2023-05-07T04:05:25;26.95;;;20.70;;
1048;SDS011;513;51.444;7.196;2023-05-07T04:07:52;28.23;;;21.73;;
1048;SDS011;513;51.444;7.196;2023-05-07T04:10:19;29.30;;;23.10;;
1048;SDS011;513;51.444;7.196;2023-05-07T04:12:46;32.17;;;24.77;;
1048;SDS011;513;51.444;7.196;2023-05-07T04:15:15;31.90;;;23.10;;
1048;SDS011;513;51.444;7.196;2023-05-07T04:17:42;32.50;;;26.55;;
1048;SDS011;513;51.444;7.196;2023-05-07T04:20:09;33.80;;;26.30;;
1048;SDS011;513;51.444;7.196;2023-05-07T04:22:37;32.13;;;26.17;;
1048;SDS011;513;51.444;7.196;2023-05-07T04:25:04;40.38;;;30.15;;
1048;SDS011;513;51.444;7.196;2023-05-07T04:27:31;47.05;;;33.65;;
1048;SDS011;513;51.444;7.196;2023-05-07T04:29:58;50.15;;;33.97;;
1048;SDS011;513;51.444;7.196;2023-05-07T04:32:27;56.15;;;37.03;;
1048;SDS011;513;51.444;7.196;2023-05-07T04:34:54;55.25;;;37.83;;
1048;SDS011;513;51.444;7.196;2023-05-07T04:37:21;60.10;;;39.45;;
1048;SDS011;513;51.444;7.196;2023-05-07T04:39:48;64.00;;;39.10;;
1048;SDS011;513;51.444;7.196;2023-05-07T04:42:15;58.47;;;38.22;;
1048;SDS011;513;51.444;7.196;2023-05-07T04:44:42;55.67;;;36.75;;
1048;SDS011;513;51.444;7.196;2023-05-07T04:47:10;54.92;;;37.08;;
1048;SDS011;513;51.444;7.196;2023-05-07T04:49:38;53.65;;;35.53;;
1048;SDS011;513;51.444;7.196;2023-05-07T04:52:05;49.97;;;34.35;;
1048;SDS011;513;51.444;7.196;2023-05-07T04:54:32;50.42;;;33.40;;
1048;SDS011;513;51.444;7.196;2023-05-07T04:56:59;44.53;;;32.13;;
1048;SDS011;513;51.444;7.196;2023-05-07T04:59:26;35.13;;;27.87;;
1048;SDS011;513;51.444;7.196;2023-05-07T05:01:53;30.80;;;25.70;;
1048;SDS011;513;51.444;7.196;2023-05-07T05:04:20;30.43;;;25.53;;
1048;SDS011;513;51.444;7.196;2023-05-07T05:06:48;28.33;;;22.63;;
1048;SDS011;513;51.444;7.196;2023-05-07T05:09:15;23.70;;;20.13;;
1048;SDS011;513;51.444;7.196;2023-05-07T05:11:42;23.80;;;20.42;;
1048;SDS011;513;51.444;7.196;2023-05-07T05:14:09;20.77;;;18.35;;
1048;SDS011;513;51.444;7.196;2023-05-07T05:16:36;22.20;;;19.10;;
1048;SDS011;513;51.444;7.196;2023-05-07T05:19:03;22.77;;;19.02;;
1048;SDS011;513;51.444;7.196;2023-05-07T05:21:30;23.25;;;19.65;;
1048;SDS011;513;51.444;7.196;2023-05-07T05:23:59;23.58;;;20.38;;
1048;SDS011;513;51.444;7.196;2023-05-07T05:26:26;24.30;;;20.45;;
1048;SDS011;513;51.444;7.196;2023-05-07T05:28:53;21.02;;;18.70;;
1048;SDS011;513;51.444;7.196;2023-05-07T05:31:20;18.48;;;16.48;;
1048;SDS011;513;51.444;7.196;2023-05-07T05:33:47;16.53;;;14.70;;
1048;SDS011;513;51.444;7.196;2023-05-07T05:36:14;16.55;;;14.70;;
1048;SDS011;513;51.444;7.196;2023-05-07T05:38:41;16.60;;;14.97;;
1048;SDS011;513;51.444;7.196;2023-05-07T05:41:10;14.27;;;12.45;;
1048;SDS011;513;51.444;7.196;2023-05-07T05:43:37;13.90;;;12.23;;
1048;SDS011;513;51.444;7.196;2023-05-07T05:46:04;14.50;;;13.07;;
1048;SDS011;513;51.444;7.196;2023-05-07T05:48:31;15.20;;;13.50;;
1048;SDS011;513;51.444;7.196;2023-05-07T05:50:58;13.73;;;12.32;;
1048;SDS011;513;51.444;7.196;2023-05-07T05:53:25;12.23;;;11.02;;
1048;SDS011;513;51.444;7.196;2023-05-07T05:55:52;10.70;;;9.60;;
1048;SDS011;513;51.444;7.196;2023-05-07T05:58:21;10.60;;;9.18;;
1048;SDS011;513;51.444;7.196;2023-05-07T06:00:48;10.02;;;8.48;;
1048;SDS011;513;51.444;7.196;2023-05-07T06:03:17;9.52;;;7.88;;
1048;SDS011;513;51.444;7.196;2023-05-07T06:05:44;8.05;;;7.25;;
1048;SDS011;513;51.444;7.196;2023-05-07T06:08:12;9.13;;;7.50;;
1048;SDS011;513;51.444;7.196;2023-05-07T06:10:39;7.22;;;6.10;;
1048;SDS011;513;51.444;7.196;2023-05-07T06:13:07;9.02;;;6.63;;
1048;SDS011;513;51.444;7.196;2023-05-07T06:15:35;6.82;;;5.82;;
1048;SDS011;513;51.444;7.196;2023-05-07T06:18:02;6.40;;;5.70;;
1048;SDS011;513;51.444;7.196;2023-05-07T06:20:29;7.55;;;5.20;;
1048;SDS011;513;51.444;7.196;2023-05-07T06:22:56;6.43;;;4.85;;
1048;SDS011;513;51.444;7.196;2023-05-07T06:25:23;7.78;;;5.30;;
1048;SDS011;513;51.444;7.196;2023-05-07T06:27:50;5.38;;;4.88;;
1048;SDS011;513;51.444;7.196;2023-05-07T06:30:17;8.73;;;5.07;;
1048;SDS011;513;51.444;7.196;2023-05-07T06:32:45;7.38;;;4.90;;
1048;SDS011;513;51.444;7.196;2023-05-07T06:35:12;5.60;;;4.78;;
1048;SDS011;513;51.444;7.196;2023-05-07T06:37:40;6.22;;;4.60;;
1048;SDS011;513;51.444;7.196;2023-05-07T06:40:07;5.72;;;4.50;;
1048;SDS011;513;51.444;7.196;2023-05-07T06:42:35;5.68;;;4.30;;
1048;SDS011;513;51.444;7.196;2023-05-07T06:45:02;7.40;;;4.30;;
1048;SDS011;513;51.444;7.196;2023-05-07T06:47:29;6.80;;;3.80;;
1048;SDS011;513;51.444;7.196;2023-05-07T06:49:58;4.73;;;3.70;;
1048;SDS011;513;51.444;7.196;2023-05-07T06:52:25;4.53;;;3.40;;
1048;SDS011;513;51.444;7.196;2023-05-07T06:54:52;5.93;;;3.00;;
1048;SDS011;513;51.444;7.196;2023-05-07T06:57:19;5.20;;;3.47;;
1048;SDS011;513;51.444;7.196;2023-05-07T06:59:46;4.90;;;3.47;;
1048;SDS011;513;51.444;7.196;2023-05-07T07:02:12;3.65;;;3.30;;
1048;SDS011;513;51.444;7.196;2023-05-07T07:04:39;3.78;;;3.38;;
1048;SDS011;513;51.444;7.196;2023-05-07T07:07:08;5.85;;;3.25;;
1048;SDS011;513;51.444;7.196;2023-05-07T07:09:35;3.75;;;2.92;;
1048;SDS011;513;51.444;7.196;2023-05-07T07:12:02;4.43;;;2.80;;
1048;SDS011;513;51.444;7.196;2023-05-07T07:14:29;3.55;;;2.53;;
1048;SDS011;513;51.444;7.196;2023-05-07T07:16:56;4.35;;;3.00;;
1048;SDS011;513;51.444;7.196;2023-05-07T07:19:23;6.03;;;3.08;;
1048;SDS011;513;51.444;7.196;2023-05-07T07:21:50;3.20;;;2.60;;
1048;SDS011;513;51.444;7.196;2023-05-07T07:24:18;6.00;;;3.00;;
1048;SDS011;513;51.444;7.196;2023-05-07T07:26:46;4.20;;;2.97;;
1048;SDS011;513;51.444;7.196;2023-05-07T07:29:13;4.22;;;2.80;;
1048;SDS011;513;51.444;7.196;2023-05-07T07:31:40;5.05;;;3.00;;
1048;SDS011;513;51.444;7.196;2023-05-07T07:34:07;4.55;;;3.20;;
1048;SDS011;513;51.444;7.196;2023-05-07T07:36:34;4.30;;;2.80;;
1048;SDS011;513;51.444;7.196;2023-05-07T07:39:01;3.20;;;2.50;;
1048;SDS011;513;51.444;7.196;2023-05-07T07:41:29;4.50;;;2.78;;
1048;SDS011;513;51.444;7.196;2023-05-07T07:43:56;5.38;;;2.83;;
1048;SDS011;513;51.444;7.196;2023-05-07T07:46:23;4.10;;;2.72;;
1048;SDS011;513;51.444;7.196;2023-05-07T07:48:51;6.20;;;3.10;;
1048;SDS011;513;51.444;7.196;2023-05-07T07:51:19;4.95;;;2.80;;
1048;SDS011;513;51.444;7.196;2023-05-07T07:53:46;4.13;;;2.78;;
1048;SDS011;513;51.444;7.196;2023-05-07T07:56:13;5.82;;;2.78;;
1048;SDS011;513;51.444;7.196;2023-05-07T07:58:41;4.28;;;2.67;;
1048;SDS011;513;51.444;7.196;2023-05-07T08:01:08;4.13;;;2.95;;
1048;SDS011;513;51.444;7.196;2023-05-07T08:03:37;5.30;;;3.47;;
1048;SDS011;513;51.444;7.196;2023-05-07T08:06:04;5.22;;;3.00;;
1048;SDS011;513;51.444;7.196;2023-05-07T08:08:31;3.63;;;2.72;;
1048;SDS011;513;51.444;7.196;2023-05-07T08:10:58;4.67;;;2.90;;
1048;SDS011;513;51.444;7.196;2023-05-07T08:13:25;3.78;;;3.38;;
1048;SDS011;513;51.444;7.196;2023-05-07T08:15:53;5.05;;;3.28;;
1048;SDS011;513;51.444;7.196;2023-05-07T08:18:20;3.95;;;2.80;;
1048;SDS011;513;51.444;7.196;2023-05-07T08:20:49;4.65;;;2.60;;
1048;SDS011;513;51.444;7.196;2023-05-07T08:23:16;5.00;;;3.03;;
1048;SDS011;513;51.444;7.196;2023-05-07T08:25:43;4.10;;;2.20;;
1048;SDS011;513;51.444;7.196;2023-05-07T08:28:10;4.03;;;2.40;;
1048;SDS011;513;51.444;7.196;2023-05-07T08:30:37;4.22;;;2.30;;
1048;SDS011;513;51.444;7.196;2023-05-07T08:33:05;5.82;;;2.50;;
1048;SDS011;513;51.444;7.196;2023-05-07T08:35:32;3.75;;;2.45;;
1048;SDS011;513;51.444;7.196;2023-05-07T08:37:59;3.30;;;2.35;;
1048;SDS011;513;51.444;7.196;2023-05-07T08:40:26;4.85;;;2.55;;
1048;SDS011;513;51.444;7.196;2023-05-07T08:42:54;4.65;;;2.60;;
1048;SDS011;513;51.444;7.196;2023-05-07T08:45:22;6.22;;;3.80;;
1048;SDS011;513;51.444;7.196;2023-05-07T08:47:50;4.82;;;2.60;;
1048;SDS011;513;51.444;7.196;2023-05-07T08:50:20;3.63;;;2.50;;
1048;SDS011;513;51.444;7.196;2023-05-07T08:52:47;5.30;;;3.05;;
1048;SDS011;513;51.444;7.196;2023-05-07T08:55:14;4.32;;;3.10;;
1048;SDS011;513;51.444;7.196;2023-05-07T08:57:41;5.13;;;3.53;;
1048;SDS011;513;51.444;7.196;2023-05-07T09:00:09;4.85;;;3.33;;
1048;SDS011;513;51.444;7.196;2023-05-07T09:02:36;6.07;;;3.38;;
1048;SDS011;513;51.444;7.196;2023-05-07T09:05:03;3.60;;;2.90;;
1048;SDS011;513;51.444;7.196;2023-05-07T09:07:32;4.20;;;3.50;;
1048;SDS011;513;51.444;7.196;2023-05-07T09:10:00;5.03;;;3.30;;
1048;SDS011;513;51.444;7.196;2023-05-07T09:12:28;5.05;;;3.95;;
1048;SDS011;513;51.444;7.196;2023-05-07T09:14:55;4.60;;;3.67;;
1048;SDS011;513;51.444;7.196;2023-05-07T09:17:22;4.63;;;3.80;;
1048;SDS011;513;51.444;7.196;2023-05-07T09:19:49;6.25;;;3.78;;
1048;SDS011;513;51.444;7.196;2023-05-07T09:22:18;3.75;;;3.45;;
1048;SDS011;513;51.444;7.196;2023-05-07T09:24:48;5.03;;;3.35;;
1048;SDS011;513;51.444;7.196;2023-05-07T09:27:15;6.22;;;4.22;;
1048;SDS011;513;51.444;7.196;2023-05-07T09:29:43;4.07;;;3.28;;
1048;SDS011;513;51.444;7.196;2023-05-07T09:32:10;3.70;;;3.30;;
1048;SDS011;513;51.444;7.196;2023-05-07T09:34:37;4.90;;;3.50;;
1048;SDS011;513;51.444;7.196;2023-05-07T09:37:04;4.20;;;3.20;;
1048;SDS011;513;51.444;7.196;2023-05-07T09:39:38;7.25;;;5.25;;
1048;SDS011;513;51.444;7.196;2023-05-07T09:42:07;3.83;;;3.20;;
1048;SDS011;513;51.444;7.196;2023-05-07T09:44:34;3.83;;;3.10;;
1048;SDS011;513;51.444;7.196;2023-05-07T09:47:01;4.20;;;2.90;;
1048;SDS011;513;51.444;7.196;2023-05-07T09:49:31;4.85;;;4.05;;
1048;SDS011;513;51.444;7.196;2023-05-07T09:52:00;7.13;;;4.22;;
1048;SDS011;513;51.444;7.196;2023-05-07T09:54:27;7.97;;;4.90;;
1048;SDS011;513;51.444;7.196;2023-05-07T09:56:55;4.60;;;3.83;;
1048;SDS011;513;51.444;7.196;2023-05-07T09:59:24;5.50;;;4.20;;
1048;SDS011;513;51.444;7.196;2023-05-07T10:01:52;5.75;;;4.97;;
1048;SDS011;513;51.444;7.196;2023-05-07T10:04:19;6.22;;;5.55;;
1048;SDS011;513;51.444;7.196;2023-05-07T10:06:47;6.35;;;5.38;;
1048;SDS011;513;51.444;7.196;2023-05-07T10:09:14;6.07;;;4.55;;
1048;SDS011;513;51.444;7.196;2023-05-07T10:11:41;5.32;;;4.60;;
1048;SDS011;513;51.444;7.196;2023-05-07T10:14:09;8.10;;;4.40;;
1048;SDS011;513;51.444;7.196;2023-05-07T10:16:38;6.72;;;4.78;;
1048;SDS011;513;51.444;7.196;2023-05-07T10:19:05;7.65;;;5.03;;
1048;SDS011;513;51.444;7.196;2023-05-07T10:21:35;5.40;;;4.70;;
1048;SDS011;513;51.444;7.196;2023-05-07T10:24:03;5.10;;;4.57;;
1048;SDS011;513;51.444;7.196;2023-05-07T10:26:33;6.10;;;4.93;;
1048;SDS011;513;51.444;7.196;2023-05-07T10:29:03;4.90;;;3.88;;
1048;SDS011;513;51.444;7.196;2023-05-07T10:31:52;4.90;;;3.42;;
1048;SDS011;513;51.444;7.196;2023-05-07T10:34:21;4.53;;;3.80;;
1048;SDS011;513;51.444;7.196;2023-05-07T10:36:49;4.90;;;3.55;;
1048;SDS011;513;51.444;7.196;2023-05-07T10:39:17;5.45;;;3.33;;
1048;SDS011;513;51.444;7.196;2023-05-07T10:41:44;3.83;;;3.10;;
1048;SDS011;513;51.444;7.196;2023-05-07T10:44:11;4.53;;;3.87;;
1048;SDS011;513;51.444;7.196;2023-05-07T10:46:38;5.20;;;3.67;;
1048;SDS011;513;51.444;7.196;2023-05-07T10:49:10;5.00;;;4.00;;
1048;SDS011;513;51.444;7.196;2023-05-07T10:51:37;5.23;;;4.17;;
1048;SDS011;513;51.444;7.196;2023-05-07T10:54:20;4.90;;;4.30;;
1048;SDS011;513;51.444;7.196;2023-05-07T10:56:48;4.95;;;3.63;;
1048;SDS011;513;51.444;7.196;2023-05-07T10:59:33;5.23;;;3.63;;
1048;SDS011;513;51.444;7.196;2023-05-07T11:02:06;5.18;;;3.60;;
1048;SDS011;513;51.444;7.196;2023-05-07T11:04:36;4.50;;;3.10;;
1048;SDS011;513;51.444;7.196;2023-05-07T11:09:57;4.88;;;3.38;;
1048;SDS011;513;51.444;7.196;2023-05-07T11:15:12;4.50;;;3.20;;
1048;SDS011;513;51.444;7.196;2023-05-07T11:17:51;4.80;;;3.50;;
1048;SDS011;513;51.444;7.196;2023-05-07T11:20:20;5.70;;;3.55;;
1048;SDS011;513;51.444;7.196;2023-05-07T11:22:47;4.38;;;3.40;;
1048;SDS011;513;51.444;7.196;2023-05-07T11:25:17;4.10;;;3.13;;
1048;SDS011;513;51.444;7.196;2023-05-07T11:27:44;4.53;;;3.63;;
1048;SDS011;513;51.444;7.196;2023-05-07T11:30:16;4.63;;;3.92;;
1048;SDS011;513;51.444;7.196;2023-05-07T11:32:46;6.53;;;4.07;;
1048;SDS011;513;51.444;7.196;2023-05-07T11:35:13;5.95;;;4.60;;
1048;SDS011;513;51.444;7.196;2023-05-07T11:37:43;5.45;;;4.65;;
1048;SDS011;513;51.444;7.196;2023-05-07T11:40:11;6.10;;;4.65;;
1048;SDS011;513;51.444;7.196;2023-05-07T11:42:39;5.25;;;4.20;;
1048;SDS011;513;51.444;7.196;2023-05-07T11:45:08;6.40;;;4.68;;
1048;SDS011;513;51.444;7.196;2023-05-07T11:47:35;5.53;;;4.32;;
1048;SDS011;513;51.444;7.196;2023-05-07T11:50:02;7.00;;;5.03;;
1048;SDS011;513;51.444;7.196;2023-05-07T11:52:30;5.82;;;5.03;;
1048;SDS011;513;51.444;7.196;2023-05-07T11:54:59;7.72;;;5.43;;
1048;SDS011;513;51.444;7.196;2023-05-07T11:57:27;8.43;;;6.07;;
1048;SDS011;513;51.444;7.196;2023-05-07T11:59:54;6.67;;;5.90;;
1048;SDS011;513;51.444;7.196;2023-05-07T12:02:21;10.25;;;6.57;;
1048;SDS011;513;51.444;7.196;2023-05-07T12:04:49;7.53;;;6.78;;
1048;SDS011;513;51.444;7.196;2023-05-07T12:07:16;8.38;;;6.93;;
1048;SDS011;513;51.444;7.196;2023-05-07T12:09:44;7.93;;;7.05;;
1048;SDS011;513;51.444;7.196;2023-05-07T12:12:13;7.80;;;6.95;;
1048;SDS011;513;51.444;7.196;2023-05-07T12:14:42;8.10;;;6.65;;
1048;SDS011;513;51.444;7.196;2023-05-07T12:17:10;6.40;;;5.47;;
1048;SDS011;513;51.444;7.196;2023-05-07T12:19:38;6.85;;;6.15;;
1048;SDS011;513;51.444;7.196;2023-05-07T12:22:05;8.45;;;6.60;;
1048;SDS011;513;51.444;7.196;2023-05-07T12:24:42;7.57;;;6.63;;
1048;SDS011;513;51.444;7.196;2023-05-07T12:27:09;7.63;;;6.75;;
1048;SDS011;513;51.444;7.196;2023-05-07T12:29:38;6.95;;;6.25;;
1048;SDS011;513;51.444;7.196;2023-05-07T12:32:09;7.82;;;6.43;;
1048;SDS011;513;51.444;7.196;2023-05-07T12:34:39;8.80;;;6.57;;
1048;SDS011;513;51.444;7.196;2023-05-07T12:37:06;7.30;;;6.60;;
1048;SDS011;513;51.444;7.196;2023-05-07T12:39:33;6.68;;;5.45;;
1048;SDS011;513;51.444;7.196;2023-05-07T12:42:00;6.82;;;5.68;;
1048;SDS011;513;51.444;7.196;2023-05-07T12:44:28;8.00;;;5.97;;
1048;SDS011;513;51.444;7.196;2023-05-07T12:46:57;7.45;;;5.65;;
1048;SDS011;513;51.444;7.196;2023-05-07T12:49:25;7.05;;;5.80;;
1048;SDS011;513;51.444;7.196;2023-05-07T12:51:52;7.75;;;5.40;;
1048;SDS011;513;51.444;7.196;2023-05-07T12:54:29;8.00;;;6.05;;
1048;SDS011;513;51.444;7.196;2023-05-07T12:57:00;7.93;;;6.30;;
1048;SDS011;513;51.444;7.196;2023-05-07T12:59:30;8.35;;;7.20;;
1048;SDS011;513;51.444;7.196;2023-05-07T13:01:59;8.07;;;6.40;;
1048;SDS011;513;51.444;7.196;2023-05-07T13:04:26;7.03;;;6.30;;
1048;SDS011;513;51.444;7.196;2023-05-07T13:06:53;9.63;;;6.88;;
1048;SDS011;513;51.444;7.196;2023-05-07T13:09:20;8.07;;;6.38;;
1048;SDS011;513;51.444;7.196;2023-05-07T13:11:47;8.82;;;6.88;;
1048;SDS011;513;51.444;7.196;2023-05-07T13:14:14;6.93;;;6.20;;
1048;SDS011;513;51.444;7.196;2023-05-07T13:16:41;7.15;;;6.00;;
1048;SDS011;513;51.444;7.196;2023-05-07T13:19:10;7.20;;;5.95;;
1048;SDS011;513;51.444;7.196;2023-05-07T13:21:37;9.10;;;5.82;;
1048;SDS011;513;51.444;7.196;2023-05-07T13:24:04;6.97;;;5.47;;
1048;SDS011;513;51.444;7.196;2023-05-07T13:26:31;6.35;;;5.72;;
1048;SDS011;513;51.444;7.196;2023-05-07T13:28:58;7.35;;;6.05;;
1048;SDS011;513;51.444;7.196;2023-05-07T13:31:25;8.00;;;7.13;;
1048;SDS011;513;51.444;7.196;2023-05-07T13:33:52;9.27;;;6.50;;
1048;SDS011;513;51.444;7.196;2023-05-07T13:36:22;8.93;;;5.82;;
1048;SDS011;513;51.444;7.196;2023-05-07T13:38:49;7.22;;;5.70;;
1048;SDS011;513;51.444;7.196;2023-05-07T13:41:17;7.88;;;5.88;;
1048;SDS011;513;51.444;7.196;2023-05-07T13:43:45;7.05;;;5.80;;
1048;SDS011;513;51.444;7.196;2023-05-07T13:46:11;7.18;;;5.90;;
1048;SDS011;513;51.444;7.196;2023-05-07T13:48:38;8.07;;;5.32;;
1048;SDS011;513;51.444;7.196;2023-05-07T13:51:06;6.05;;;5.15;;
1048;SDS011;513;51.444;7.196;2023-05-07T13:53:34;6.30;;;5.30;;
1048;SDS011;513;51.444;7.196;2023-05-07T13:56:01;7.28;;;4.70;;
1048;SDS011;513;51.444;7.196;2023-05-07T13:58:29;6.70;;;4.73;;
1048;SDS011;513;51.444;7.196;2023-05-07T14:00:56;5.40;;;4.63;;
1048;SDS011;513;51.444;7.196;2023-05-07T14:03:23;6.38;;;4.78;;
1048;SDS011;513;51.444;7.196;2023-05-07T14:05:50;5.03;;;4.18;;
1048;SDS011;513;51.444;7.196;2023-05-07T14:08:17;5.70;;;4.60;;
1048;SDS011;513;51.444;7.196;2023-05-07T14:10:46;5.55;;;4.90;;
1048;SDS011;513;51.444;7.196;2023-05-07T14:13:13;6.07;;;5.07;;
1048;SDS011;513;51.444;7.196;2023-05-07T14:15:40;6.30;;;4.90;;
1048;SDS011;513;51.444;7.196;2023-05-07T14:18:11;7.63;;;5.30;;
1048;SDS011;513;51.444;7.196;2023-05-07T14:20:38;5.82;;;5.13;;
1048;SDS011;513;51.444;7.196;2023-05-07T14:23:05;7.88;;;5.10;;
1048;SDS011;513;51.444;7.196;2023-05-07T14:25:32;6.78;;;5.82;;
1048;SDS011;513;51.444;7.196;2023-05-07T14:28:00;8.30;;;6.00;;
1048;SDS011;513;51.444;7.196;2023-05-07T14:30:27;7.00;;;5.97;;
1048;SDS011;513;51.444;7.196;2023-05-07T14:32:54;6.75;;;5.60;;
1048;SDS011;513;51.444;7.196;2023-05-07T14:35:21;8.13;;;6.22;;
1048;SDS011;513;51.444;7.196;2023-05-07T14:37:48;8.10;;;6.13;;
1048;SDS011;513;51.444;7.196;2023-05-07T14:40:15;7.43;;;6.43;;
1048;SDS011;513;51.444;7.196;2023-05-07T14:42:42;8.23;;;6.13;;
1048;SDS011;513;51.444;7.196;2023-05-07T14:45:10;7.18;;;6.45;;
1048;SDS011;513;51.444;7.196;2023-05-07T14:47:37;8.60;;;6.28;;
1048;SDS011;513;51.444;7.196;2023-05-07T14:50:05;7.07;;;6.37;;
1048;SDS011;513;51.444;7.196;2023-05-07T14:52:32;7.10;;;6.30;;
1048;SDS011;513;51.444;7.196;2023-05-07T14:54:59;8.17;;;6.83;;
1048;SDS011;513;51.444;7.196;2023-05-07T14:57:26;8.82;;;7.13;;
1048;SDS011;513;51.444;7.196;2023-05-07T14:59:53;7.85;;;7.05;;
1048;SDS011;513;51.444;7.196;2023-05-07T15:02:21;9.23;;;7.60;;
1048;SDS011;513;51.444;7.196;2023-05-07T15:04:48;8.07;;;7.10;;
1048;SDS011;513;51.444;7.196;2023-05-07T15:07:15;8.15;;;7.30;;
1048;SDS011;513;51.444;7.196;2023-05-07T15:09:43;8.38;;;7.25;;
1048;SDS011;513;51.444;7.196;2023-05-07T15:12:10;8.43;;;7.32;;
1048;SDS011;513;51.444;7.196;2023-05-07T15:14:37;8.88;;;7.80;;
1048;SDS011;513;51.444;7.196;2023-05-07T15:17:04;9.00;;;8.10;;
1048;SDS011;513;51.444;7.196;2023-05-07T15:19:33;9.18;;;8.27;;
1048;SDS011;513;51.444;7.196;2023-05-07T15:22:00;10.37;;;8.07;;
1048;SDS011;513;51.444;7.196;2023-05-07T15:24:27;9.45;;;8.48;;
1048;SDS011;513;51.444;7.196;2023-05-07T15:26:54;10.68;;;8.68;;
1048;SDS011;513;51.444;7.196;2023-05-07T15:29:23;8.57;;;7.60;;
1048;SDS011;513;51.444;7.196;2023-05-07T15:31:50;8.07;;;7.22;;